This is the latest recevied weather packets stored in our database for station/object NI0Z. If no packets are shown the sender has not sent any weather packets the latest 1 day(s).
| Time | Temp. | Humidity | Pressure | Rain* | Wind** | Luminosity | Snow |
|---|---|---|---|---|---|---|---|
| 1836274809 | 20° C | 73% | - | 0 mm | 0 m/s | - | - |
| 1836274507 | 19.44° C | 75% | - | 0 mm | 0 m/s | - | - |
| 1836274360 | 20° C | 74% | - | 0 mm | 0 m/s | - | - |
| 1836274204 | 18.89° C | 79% | - | 0 mm | 0 m/s | - | - |
| 1836273898 | 18.89° C | 79% | - | 0 mm | 0 m/s | - | - |
| 1778057222 | 6.67° C | 87% | - | 0 mm | 0 m/s | - | - |
| 1778056918 | 6.67° C | 87% | - | 0 mm | 0 m/s | - | - |
| 1778056615 | 6.67° C | 86% | - | 0 mm | 0 m/s | - | - |
| 1778056313 | 6.67° C | 86% | - | 0 mm | 0 m/s | - | - |
| 1778056010 | 6.67° C | 86% | - | 0 mm | 0 m/s | - | - |
| 1778055711 | 6.67° C | 86% | - | 0 mm | 0 m/s | - | - |
| 1778055409 | 6.67° C | 85% | - | 0 mm | 0 m/s | - | - |
| 1778055107 | 6.67° C | 85% | - | 0 mm | 0 m/s | - | - |
| 1778054804 | 6.67° C | 85% | - | 0 mm | 0 m/s | - | - |
| 1778054501 | 6.67° C | 85% | - | 0 mm | 0 m/s | - | - |
| 1778054198 | 6.67° C | 86% | - | 0 mm | 0 m/s | - | - |
| 1778053895 | 6.67° C | 86% | - | 0 mm | 0 m/s | - | - |
| 1778053593 | 7.22° C | 86% | - | 0 mm | 0 m/s | - | - |
| 1778053290 | 7.22° C | 85% | - | 0 mm | 0 m/s | - | - |
| 1778052987 | 7.22° C | 83% | - | 0 mm | 0 m/s | - | - |
| 1778052685 | 7.22° C | 82% | - | 0 mm | 0 m/s | - | - |
| 1778052381 | 7.22° C | 81% | - | 0 mm | 0 m/s | - | - |
| 1778052079 | 7.22° C | 81% | - | 0 mm | 0.45 m/s, 332° | - | - |
| 1778051777 | 7.22° C | 81% | - | 0 mm | 0.45 m/s, 338° | - | - |
| 1778051474 | 6.67° C | 82% | - | 0 mm | 0.45 m/s, 346° | - | - |
* Rain latest hour (hover to see other rain measurements)
** Current wind speed in m/s (hover to see current wind gust speed)